Time;durP1;ratioP1;P1;durP2;ratioP2;P2;SDS_P1;SDS_P2;PMS_P1;PMS_P2;Temp;Humidity;BMP_temperature;BMP_pressure;BME280_temperature;BME280_humidity;BME280_pressure;Samples;Min_cycle;Max_cycle;Signal;HPM_P1;HPM_P2
2023/01/22 00:02:03;;;;;;;116.87;47.57;;;;;;;-141.97;100.00;47822.78;5053056;28;20178;-85
2023/01/22 00:04:29;;;;;;;127.97;50.37;;;;;;;-141.97;100.00;47899.66;5053754;28;20169;-85
2023/01/22 00:06:54;;;;;;;111.43;48.33;;;;;;;-141.97;100.00;47815.09;5052999;28;20181;-85
2023/01/22 00:09:21;;;;;;;117.73;50.03;;;;;;;-141.97;100.00;47811.25;5052861;28;20164;-84
2023/01/22 00:11:50;;;;;;;131.53;56.17;;;;;;;-141.97;100.00;47820.84;5053233;28;20523;-84
2023/01/22 00:14:16;;;;;;;120.87;52.43;;;;;;;-141.97;100.00;47836.22;5052691;28;20301;-84
2023/01/22 00:16:41;;;;;;;113.90;51.73;;;;;;;-141.97;100.00;47826.63;5052908;28;20225;-84
2023/01/22 00:19:07;;;;;;;117.67;49.63;;;;;;;-141.97;100.00;47778.56;5052749;28;20644;-84
2023/01/22 00:21:33;;;;;;;112.13;48.50;;;;;;;-141.97;100.00;47743.97;5055673;28;20530;-86
2023/01/22 00:23:59;;;;;;;112.07;47.10;;;;;;;-141.97;100.00;47840.06;5056848;28;20282;-85
2023/01/22 00:26:24;;;;;;;106.43;46.70;;;;;;;-141.97;100.00;47863.13;5051565;28;20180;-85
2023/01/22 00:28:50;;;;;;;107.30;46.27;;;;;;;-141.97;100.00;47795.88;5053005;28;20211;-85
2023/01/22 00:31:16;;;;;;;98.20;43.17;;;;;;;-141.97;100.00;47765.09;5051405;28;20247;-85
2023/01/22 00:33:43;;;;;;;121.73;48.83;;;;;;;-141.97;100.00;47830.47;5052610;28;20189;-84
2023/01/22 00:36:11;;;;;;;115.20;48.87;;;;;;;-141.97;100.00;47718.97;5052265;28;20157;-84
2023/01/22 00:38:37;;;;;;;94.77;42.37;;;;;;;-141.97;100.00;47855.44;5044560;28;20157;-85
2023/01/22 00:41:03;;;;;;;98.87;41.50;;;;;;;-141.97;100.00;47732.44;5051493;28;20312;-85
2023/01/22 00:43:30;;;;;;;86.77;39.00;;;;;;;-141.97;100.00;47759.34;5055711;28;20171;-86
2023/01/22 00:45:55;;;;;;;89.47;38.83;;;;;;;-141.97;100.00;47799.72;5061641;28;20614;-85
2023/01/22 00:48:21;;;;;;;85.80;38.37;;;;;;;-141.97;100.00;47726.66;5050672;28;20195;-85
2023/01/22 00:50:47;;;;;;;105.50;42.83;;;;;;;-141.97;100.00;47822.78;5051814;28;20174;-85
2023/01/22 00:53:13;;;;;;;99.13;41.17;;;;;;;-141.97;100.00;47751.66;5051932;28;20184;-84
2023/01/22 00:55:38;;;;;;;92.27;38.87;;;;;;;-141.97;100.00;47832.38;5052071;28;20169;-84
2023/01/22 00:58:03;;;;;;;98.60;39.97;;;;;;;-141.97;100.00;47815.09;5052022;28;20613;-85
2023/01/22 01:00:29;;;;;;;91.67;38.27;;;;;;;-141.97;100.00;47834.31;5051776;28;20238;-84
2023/01/22 01:05:38;;;;;;;87.47;37.00;;;;;;;-141.97;100.00;47763.19;5051633;28;20245;-85
2023/01/22 01:08:04;;;;;;;90.60;38.70;;;;;;;-141.97;100.00;47845.84;5051588;28;20193;-84
2023/01/22 01:10:29;;;;;;;93.70;39.60;;;;;;;-141.97;100.00;47742.03;5051923;28;20173;-88
2023/01/22 01:12:54;;;;;;;97.43;38.33;;;;;;;-141.97;100.00;47834.31;5056726;28;20620;-84
2023/01/22 01:15:20;;;;;;;94.67;38.87;;;;;;;-141.97;100.00;47838.16;5056210;28;20229;-85
2023/01/22 01:17:45;;;;;;;96.17;38.77;;;;;;;-141.97;100.00;47832.38;5051869;28;20636;-83
2023/01/22 01:20:11;;;;;;;92.00;39.13;;;;;;;-141.97;100.00;47857.38;5051526;28;20248;-84
2023/01/22 01:22:37;;;;;;;89.40;38.60;;;;;;;-141.97;100.00;47890.06;5050456;28;20178;-86
2023/01/22 01:25:02;;;;;;;90.03;38.60;;;;;;;-141.97;100.00;47876.59;5050746;28;20177;-85
2023/01/22 01:27:30;;;;;;;89.53;35.73;;;;;;;-141.97;100.00;47828.53;5051433;28;20685;-85
2023/01/22 01:29:56;;;;;;;85.90;37.40;;;;;;;-141.97;100.00;47834.31;5051516;28;20172;-85
2023/01/22 01:32:22;;;;;;;91.03;39.20;;;;;;;-141.97;100.00;47797.78;5048446;28;20280;-85
2023/01/22 01:34:48;;;;;;;94.70;38.67;;;;;;;-141.97;100.00;47738.19;5051150;28;20700;-85
2023/01/22 01:37:14;;;;;;;95.33;39.37;;;;;;;-141.97;100.00;47826.63;5051744;28;20169;-86
2023/01/22 01:39:39;;;;;;;94.17;38.73;;;;;;;-141.97;100.00;47759.34;5046106;28;20239;-84
2023/01/22 01:42:05;;;;;;;91.93;39.60;;;;;;;-141.97;100.00;47843.91;5056577;28;20689;-84
2023/01/22 01:44:31;;;;;;;88.03;39.03;;;;;;;-141.97;100.00;47778.56;5051856;28;20157;-84
2023/01/22 01:47:00;;;;;;;88.17;38.47;;;;;;;-141.97;100.00;47909.28;5050116;28;20169;-84
2023/01/22 01:49:36;;;;;;;89.03;38.33;;;;;;;-141.97;100.00;47834.31;5049799;28;20764;-84
2023/01/22 01:52:08;;;;;;;86.97;37.67;;;;;;;-141.97;100.00;47818.94;5050119;28;20598;-85
2023/01/22 01:54:35;;;;;;;87.73;37.93;;;;;;;-141.97;100.00;47697.84;5049543;28;20199;-84
2023/01/22 01:57:05;;;;;;;91.00;38.33;;;;;;;-141.97;100.00;47930.41;5049923;28;20172;-85
2023/01/22 01:59:32;;;;;;;87.90;37.77;;;;;;;-141.97;100.00;47792.03;5051501;28;20241;-84
2023/01/22 02:02:00;;;;;;;86.27;38.73;;;;;;;-141.97;100.00;47703.59;5051151;28;20172;-84
2023/01/22 02:04:26;;;;;;;88.60;38.23;;;;;;;-141.97;100.00;47742.03;5051496;28;20153;-85
2023/01/22 02:06:51;;;;;;;81.00;36.57;;;;;;;-141.97;100.00;47743.97;5052080;28;20643;-84
2023/01/22 02:09:17;;;;;;;84.87;36.57;;;;;;;-141.97;100.00;47888.13;5051998;28;20157;-85
2023/01/22 02:11:43;;;;;;;84.40;36.47;;;;;;;-141.97;100.00;47749.72;5051471;28;20173;-85
2023/01/22 02:14:13;;;;;;;81.17;35.67;;;;;;;-141.97;100.00;47840.06;5051113;28;20664;-85
2023/01/22 02:16:38;;;;;;;82.20;35.70;;;;;;;-141.97;100.00;47799.72;5051262;28;20166;-84
2023/01/22 02:19:04;;;;;;;79.63;34.83;;;;;;;-141.97;100.00;47830.47;5051189;28;20169;-85
2023/01/22 02:21:39;;;;;;;73.57;34.63;;;;;;;-141.97;100.00;47807.41;5051019;28;20166;-85
2023/01/22 02:24:14;;;;;;;73.90;35.13;;;;;;;-141.97;100.00;47915.03;5056897;28;20200;-85
2023/01/22 02:26:41;;;;;;;79.80;36.47;;;;;;;-141.97;100.00;47822.78;5060252;28;20165;-85
2023/01/22 02:29:08;;;;;;;78.63;36.07;;;;;;;-141.97;100.00;47801.63;5055407;28;20162;-85
2023/01/22 02:31:35;;;;;;;83.40;35.60;;;;;;;-141.97;100.00;47765.09;5055578;28;20771;-85
2023/01/22 02:34:04;;;;;;;79.03;33.93;;;;;;;-141.97;100.00;47907.34;5054822;28;20193;-85
2023/01/22 02:36:33;;;;;;;79.17;32.60;;;;;;;-141.97;100.00;47695.91;5054836;28;20161;-85
2023/01/22 02:38:58;;;;;;;76.70;32.83;;;;;;;-141.97;100.00;47859.28;5057048;28;20169;-85
2023/01/22 02:41:25;;;;;;;79.83;34.20;;;;;;;-141.97;100.00;47797.78;5054626;28;20184;-85
2023/01/22 02:43:50;;;;;;;76.97;33.37;;;;;;;-141.97;100.00;47734.34;5053444;28;20169;-85
2023/01/22 02:46:16;;;;;;;83.70;34.93;;;;;;;-141.97;100.00;47888.13;5055116;28;20181;-85
2023/01/22 02:48:41;;;;;;;122.47;53.27;;;;;;;-141.97;100.00;47903.50;5054495;28;20557;-85
2023/01/22 02:51:07;;;;;;;100.43;43.57;;;;;;;-141.97;100.00;47834.31;5053441;28;20241;-84
2023/01/22 02:53:32;;;;;;;101.77;40.73;;;;;;;-141.97;100.00;47784.34;5054120;28;20189;-86
2023/01/22 02:55:58;;;;;;;87.23;37.23;;;;;;;-141.97;100.00;47878.53;5054657;28;20173;-85
2023/01/22 02:58:23;;;;;;;91.10;37.27;;;;;;;-141.97;100.00;47724.75;5054772;28;20236;-85
2023/01/22 03:00:49;;;;;;;84.10;37.67;;;;;;;-141.97;100.00;47820.84;5054806;28;20171;-85
2023/01/22 03:03:17;;;;;;;81.20;36.20;;;;;;;-141.97;100.00;47845.84;5053310;28;20217;-85
2023/01/22 03:05:51;;;;;;;87.30;37.17;;;;;;;-141.97;100.00;47836.22;5054334;28;20150;-85
2023/01/22 03:08:18;;;;;;;83.47;34.50;;;;;;;-141.97;100.00;47815.09;5054287;28;20246;-85
2023/01/22 03:10:45;;;;;;;82.53;35.30;;;;;;;-141.97;100.00;47913.13;5054517;28;20590;-85
2023/01/22 03:21:22;;;;;;;93.80;38.93;;;;;;;-141.97;100.00;47820.84;5074885;28;20193;-85
2023/01/22 03:23:53;;;;;;;86.40;37.67;;;;;;;-141.97;100.00;47830.47;5054173;28;20252;-84
2023/01/22 03:26:21;;;;;;;88.30;37.43;;;;;;;-141.97;100.00;47849.69;5054365;28;20169;-85
2023/01/22 03:28:47;;;;;;;85.03;37.27;;;;;;;-141.97;100.00;47838.16;5054349;28;20172;-85
2023/01/22 03:31:14;;;;;;;82.07;35.87;;;;;;;-141.97;100.00;47865.06;5054456;28;20177;-85
2023/01/22 03:33:40;;;;;;;85.30;36.70;;;;;;;-141.97;100.00;47797.78;5054380;28;20219;-85
2023/01/22 03:36:08;;;;;;;84.77;36.33;;;;;;;-141.97;100.00;47826.63;5054372;28;20638;-84
2023/01/22 03:38:33;;;;;;;80.80;36.63;;;;;;;-141.97;100.00;47809.31;5053845;28;20633;-84
2023/01/22 03:41:10;;;;;;;87.37;37.00;;;;;;;-141.97;100.00;47815.09;5052403;28;20173;-85
2023/01/22 03:43:36;;;;;;;84.50;36.97;;;;;;;-141.97;100.00;47822.78;5053324;28;20593;-85
2023/01/22 03:46:10;;;;;;;82.70;36.70;;;;;;;-141.97;100.00;47780.47;5054421;28;20223;-85
2023/01/22 03:48:36;;;;;;;80.03;35.73;;;;;;;-141.97;100.00;47736.28;5054514;28;20157;-85
2023/01/22 03:51:06;;;;;;;85.93;36.47;;;;;;;-141.97;100.00;47822.78;5053517;28;20170;-85
2023/01/22 03:53:32;;;;;;;76.90;34.83;;;;;;;-141.97;100.00;47928.50;5055021;28;20662;-85
2023/01/22 03:55:59;;;;;;;86.53;36.87;;;;;;;-141.97;100.00;47807.41;5053610;28;20169;-84
2023/01/22 03:58:25;;;;;;;81.20;36.23;;;;;;;-141.97;100.00;47795.88;5054344;28;20661;-85
2023/01/22 04:00:56;;;;;;;84.37;36.97;;;;;;;-141.97;100.00;47890.06;5054160;28;20671;-85
2023/01/22 04:03:21;;;;;;;77.50;35.27;;;;;;;-141.97;100.00;47874.69;5053562;28;20173;-85
2023/01/22 04:05:47;;;;;;;89.47;40.17;;;;;;;-141.97;100.00;47849.69;5055095;28;20181;-85
2023/01/22 04:08:12;;;;;;;82.20;37.00;;;;;;;-141.97;100.00;47742.03;5053885;28;20161;-85
2023/01/22 04:10:37;;;;;;;89.47;40.00;;;;;;;-141.97;100.00;47857.38;5054410;28;20197;-85
2023/01/22 04:13:03;;;;;;;92.40;40.73;;;;;;;-141.97;100.00;47895.81;5055018;28;20610;-85
2023/01/22 04:15:28;;;;;;;83.37;38.10;;;;;;;-141.97;100.00;47747.81;5053768;28;20363;-84
2023/01/22 04:17:53;;;;;;;83.80;37.10;;;;;;;-141.97;100.00;47936.19;5052618;28;20195;-85
2023/01/22 04:20:19;;;;;;;91.23;42.03;;;;;;;-141.97;100.00;47784.34;5067202;28;20197;-85
2023/01/22 04:22:46;;;;;;;88.17;38.33;;;;;;;-141.97;100.00;47842.00;5070119;28;20165;-85
2023/01/22 04:25:11;;;;;;;83.73;37.63;;;;;;;-141.97;100.00;47826.63;5062001;28;20165;-83
2023/01/22 04:27:36;;;;;;;79.03;35.83;;;;;;;-141.97;100.00;47813.16;5063127;28;20247;-85
2023/01/22 04:30:05;;;;;;;84.67;37.43;;;;;;;-141.97;100.00;47842.00;5061082;28;20169;-85
2023/01/22 04:32:31;;;;;;;83.83;37.50;;;;;;;-141.97;100.00;47838.16;5056834;28;20205;-85
2023/01/22 04:34:57;;;;;;;81.17;36.83;;;;;;;-141.97;100.00;47736.28;5053242;28;20249;-85
2023/01/22 04:37:22;;;;;;;81.10;35.73;;;;;;;-141.97;100.00;47930.41;5052345;28;20179;-85
2023/01/22 04:39:47;;;;;;;76.67;34.73;;;;;;;-141.97;100.00;47672.84;5052916;28;20544;-85
2023/01/22 04:42:13;;;;;;;74.40;33.80;;;;;;;-141.97;100.00;47940.03;5056485;28;20176;-85
2023/01/22 04:44:38;;;;;;;77.27;35.00;;;;;;;-141.97;100.00;47880.44;5071733;28;20161;-85
2023/01/22 04:47:03;;;;;;;81.80;35.47;;;;;;;-141.97;100.00;47872.75;5071308;28;20260;-84
2023/01/22 04:49:29;;;;;;;102.70;44.50;;;;;;;-141.97;100.00;47749.72;5062412;28;20557;-86
2023/01/22 04:51:55;;;;;;;121.23;52.23;;;;;;;-141.97;100.00;47763.19;5061183;28;20569;-85
2023/01/22 04:54:20;;;;;;;88.53;39.53;;;;;;;-141.97;100.00;47790.09;5053030;28;20193;-86
2023/01/22 04:56:46;;;;;;;88.83;37.73;;;;;;;-141.97;100.00;47767.03;5052426;28;20172;-85
2023/01/22 04:59:11;;;;;;;79.33;34.63;;;;;;;-141.97;100.00;47824.69;5051950;28;20180;-86
2023/01/22 05:01:37;;;;;;;81.07;35.73;;;;;;;-141.97;100.00;47784.34;5055166;28;20162;-86
2023/01/22 05:04:02;;;;;;;86.70;37.73;;;;;;;-141.97;100.00;47728.59;5056845;28;20169;-85
2023/01/22 05:06:29;;;;;;;88.50;36.27;;;;;;;-141.97;100.00;47834.31;5052868;28;20200;-85
2023/01/22 05:08:55;;;;;;;75.97;34.03;;;;;;;-141.97;100.00;47911.19;5051680;28;20184;-85
2023/01/22 05:11:20;;;;;;;78.73;34.27;;;;;;;-141.97;100.00;47803.56;5051925;28;20161;-85
2023/01/22 05:13:46;;;;;;;76.53;33.63;;;;;;;-141.97;100.00;47799.72;5051906;28;20193;-86
2023/01/22 05:16:11;;;;;;;76.77;33.30;;;;;;;-141.97;100.00;47820.84;5053678;28;20220;-85
2023/01/22 05:18:37;;;;;;;78.00;33.13;;;;;;;-141.97;100.00;47826.63;5055611;28;20168;-85
2023/01/22 05:21:02;;;;;;;84.47;37.47;;;;;;;-141.97;100.00;47851.59;5055784;28;20626;-85
2023/01/22 05:23:27;;;;;;;80.93;33.40;;;;;;;-141.97;100.00;47880.44;5053269;28;20165;-85
2023/01/22 05:25:53;;;;;;;85.57;33.77;;;;;;;-141.97;100.00;47857.38;5051844;28;20161;-85
2023/01/22 05:28:18;;;;;;;78.70;34.47;;;;;;;-141.97;100.00;47828.53;5051950;28;20645;-85
2023/01/22 05:30:44;;;;;;;81.27;33.27;;;;;;;-141.97;100.00;47840.06;5052121;28;20169;-86
2023/01/22 05:33:09;;;;;;;75.80;32.07;;;;;;;-141.97;100.00;47790.09;5051767;28;20188;-85
2023/01/22 05:35:34;;;;;;;73.87;30.13;;;;;;;-141.97;100.00;47859.28;5051625;28;20203;-85
2023/01/22 05:38:00;;;;;;;80.47;32.87;;;;;;;-141.97;100.00;47849.69;5051683;28;20161;-85
2023/01/22 05:40:25;;;;;;;80.23;33.13;;;;;;;-141.97;100.00;47761.25;5050077;28;20618;-86
2023/01/22 05:42:51;;;;;;;79.27;32.40;;;;;;;-141.97;100.00;47797.78;5051748;28;20162;-86
2023/01/22 05:45:16;;;;;;;79.00;32.00;;;;;;;-141.97;100.00;47880.44;5066969;28;20264;-85
2023/01/22 05:47:42;;;;;;;77.00;32.70;;;;;;;-141.97;100.00;47853.53;5051753;28;20215;-86
2023/01/22 05:50:08;;;;;;;77.13;32.47;;;;;;;-141.97;100.00;47768.94;5051105;28;20640;-86
2023/01/22 05:52:34;;;;;;;79.93;32.77;;;;;;;-141.97;100.00;47907.34;5051230;28;20197;-85
2023/01/22 05:55:00;;;;;;;83.53;35.03;;;;;;;-141.97;100.00;47753.56;5051127;28;20223;-85
2023/01/22 05:57:28;;;;;;;81.80;34.63;;;;;;;-141.97;100.00;47880.44;5059910;28;20236;-85
2023/01/22 05:59:54;;;;;;;81.57;34.77;;;;;;;-141.97;100.00;47809.31;5078533;28;20177;-85
2023/01/22 06:02:19;;;;;;;81.00;32.87;;;;;;;-141.97;100.00;47803.56;5058716;28;20211;-86
2023/01/22 06:04:44;;;;;;;88.80;36.90;;;;;;;-141.97;100.00;47776.63;5055291;28;20244;-85
2023/01/22 06:07:10;;;;;;;92.70;40.43;;;;;;;-141.97;100.00;47799.72;5054091;28;20176;-86
2023/01/22 06:09:35;;;;;;;89.13;34.67;;;;;;;-141.97;100.00;47834.31;5054683;28;20161;-86
2023/01/22 06:12:00;;;;;;;89.73;36.90;;;;;;;-141.97;100.00;47843.91;5054784;28;20568;-88
2023/01/22 06:14:26;;;;;;;117.57;48.43;;;;;;;-141.97;100.00;47811.25;5053269;28;20233;-85
2023/01/22 06:16:51;;;;;;;144.90;56.83;;;;;;;-141.97;100.00;47853.53;5053666;28;20170;-87
2023/01/22 06:19:17;;;;;;;219.50;74.70;;;;;;;-141.97;100.00;47907.34;5053175;28;20703;-85
2023/01/22 06:21:42;;;;;;;211.00;66.97;;;;;;;-141.97;100.00;47818.94;5054815;28;20597;-84
2023/01/22 06:24:08;;;;;;;136.33;41.37;;;;;;;-141.97;100.00;47759.34;5055064;28;20542;-86
2023/01/22 06:26:33;;;;;;;124.50;37.30;;;;;;;-141.97;100.00;47853.53;5055770;28;20181;-85
2023/01/22 06:28:58;;;;;;;110.20;35.63;;;;;;;-141.97;100.00;47738.19;5054939;28;20629;-86
2023/01/22 06:31:24;;;;;;;117.90;36.90;;;;;;;-141.97;100.00;47911.19;5055618;28;20200;-86
2023/01/22 06:33:49;;;;;;;122.73;38.93;;;;;;;-141.97;100.00;47899.66;5062018;28;20220;-84
2023/01/22 06:36:15;;;;;;;119.57;37.50;;;;;;;-141.97;100.00;47734.34;5060670;28;20162;-86
2023/01/22 06:38:40;;;;;;;114.10;37.43;;;;;;;-141.97;100.00;47842.00;5055416;28;20530;-85
2023/01/22 06:41:06;;;;;;;113.23;40.30;;;;;;;-141.97;100.00;47780.47;5055656;28;20543;-85
2023/01/22 06:43:31;;;;;;;139.83;53.03;;;;;;;-141.97;100.00;47913.13;5054821;28;20164;-85
2023/01/22 06:45:57;;;;;;;137.90;53.67;;;;;;;-141.97;100.00;47907.34;5055685;28;20601;-85
2023/01/22 06:48:22;;;;;;;139.17;54.77;;;;;;;-141.97;100.00;47926.56;5055134;28;20225;-86
2023/01/22 06:50:47;;;;;;;133.00;50.67;;;;;;;-141.97;100.00;47926.56;5055952;28;20165;-86
2023/01/22 06:53:13;;;;;;;137.00;56.37;;;;;;;-141.97;100.00;47895.81;5055511;28;20207;-88
2023/01/22 06:55:39;;;;;;;153.60;64.57;;;;;;;-141.97;100.00;47855.44;5054401;28;20227;-87
2023/01/22 06:58:04;;;;;;;146.87;60.70;;;;;;;-141.97;100.00;47859.28;5054284;28;20200;-85
2023/01/22 07:00:30;;;;;;;160.13;68.30;;;;;;;-141.97;100.00;47824.69;5054723;28;20220;-85
2023/01/22 07:02:55;;;;;;;217.30;102.33;;;;;;;-141.97;100.00;47780.47;5055087;28;20180;-86
2023/01/22 07:05:21;;;;;;;233.27;103.67;;;;;;;-141.97;100.00;47834.31;5054820;28;20180;-86
2023/01/22 07:07:46;;;;;;;259.77;114.30;;;;;;;-141.97;100.00;47705.53;5052543;28;20173;-85
2023/01/22 07:10:12;;;;;;;215.77;95.97;;;;;;;-141.97;100.00;47836.22;5054592;28;20242;-85
2023/01/22 07:12:38;;;;;;;187.23;85.10;;;;;;;-141.97;100.00;47845.84;5053304;28;20580;-86
2023/01/22 07:15:05;;;;;;;152.57;71.10;;;;;;;-141.97;100.00;47811.25;5055043;28;20225;-86
2023/01/22 07:17:31;;;;;;;148.13;66.90;;;;;;;-141.97;100.00;47918.88;5054633;28;20545;-85
2023/01/22 07:19:57;;;;;;;170.07;81.90;;;;;;;-141.97;100.00;47876.59;5054355;28;20172;-85
2023/01/22 07:22:22;;;;;;;139.70;65.17;;;;;;;-141.97;100.00;47878.53;5053676;28;20187;-85
2023/01/22 07:24:47;;;;;;;102.67;47.20;;;;;;;-141.97;100.00;47872.75;5053838;28;20177;-85
2023/01/22 07:27:13;;;;;;;110.33;50.63;;;;;;;-141.97;100.00;47795.88;5054495;28;20197;-86
2023/01/22 07:29:38;;;;;;;113.03;48.37;;;;;;;-141.97;100.00;47826.63;5053706;28;20630;-85
2023/01/22 07:32:04;;;;;;;87.23;38.83;;;;;;;-141.97;100.00;47926.56;5053721;28;20169;-86
2023/01/22 07:34:29;;;;;;;101.97;45.70;;;;;;;-141.97;100.00;47861.22;5055774;28;20213;-86
2023/01/22 07:36:55;;;;;;;114.60;49.43;;;;;;;-141.97;100.00;47915.03;5055198;28;20173;-85
2023/01/22 07:39:20;;;;;;;119.47;54.23;;;;;;;-141.97;100.00;47803.56;5053038;28;20180;-86
2023/01/22 07:41:46;;;;;;;183.50;88.50;;;;;;;-141.97;100.00;47851.59;5053451;28;20677;-85
2023/01/22 07:44:11;;;;;;;130.23;60.10;;;;;;;-141.97;100.00;47822.78;5055436;28;20174;-83
2023/01/22 07:46:37;;;;;;;112.33;48.80;;;;;;;-141.97;100.00;47938.09;5054095;28;20188;-85
2023/01/22 07:49:04;;;;;;;141.67;59.77;;;;;;;-141.97;100.00;47807.41;5052945;28;20200;-86
2023/01/22 07:51:29;;;;;;;163.43;77.13;;;;;;;-141.97;100.00;47817.00;5054111;28;20165;-84
2023/01/22 07:53:55;;;;;;;323.63;177.00;;;;;;;-141.97;100.00;47797.78;5051851;28;20196;-85
2023/01/22 07:56:20;;;;;;;209.93;83.47;;;;;;;-141.97;100.00;47934.25;5054186;28;20169;-84
2023/01/22 07:58:46;;;;;;;227.07;100.80;;;;;;;-141.97;100.00;47770.88;5056704;28;20167;-85
2023/01/22 08:01:11;;;;;;;215.27;96.63;;;;;;;-141.97;100.00;47811.25;5056517;28;20166;-83
2023/01/22 08:03:37;;;;;;;194.00;70.53;;;;;;;-141.97;100.00;47792.03;5055642;28;20158;-84
2023/01/22 08:06:16;;;;;;;150.57;46.57;;;;;;;-141.97;100.00;47842.00;5053326;28;20173;-84
2023/01/22 08:08:41;;;;;;;185.17;60.63;;;;;;;-141.97;100.00;47817.00;5053977;28;20208;-85
2023/01/22 08:11:07;;;;;;;146.43;43.93;;;;;;;-141.97;100.00;47820.84;5052985;28;20257;-85
2023/01/22 08:13:32;;;;;;;144.37;43.13;;;;;;;-141.97;100.00;47842.00;5053799;28;20246;-85
2023/01/22 08:15:59;;;;;;;238.47;94.17;;;;;;;-141.97;100.00;47876.59;5053941;28;20240;-85
2023/01/22 08:18:24;;;;;;;383.10;169.23;;;;;;;-141.97;100.00;47863.13;5053306;28;20181;-84
2023/01/22 08:20:50;;;;;;;389.60;182.67;;;;;;;-141.97;100.00;47824.69;5052233;28;20236;-85
2023/01/22 08:23:15;;;;;;;245.77;87.57;;;;;;;-141.97;100.00;47880.44;5055862;28;20165;-85
2023/01/22 08:25:41;;;;;;;223.67;76.83;;;;;;;-141.97;100.00;47913.13;5055435;28;20173;-86
2023/01/22 08:28:06;;;;;;;281.10;95.40;;;;;;;-141.97;100.00;47776.63;5055699;28;20193;-85
2023/01/22 08:30:33;;;;;;;323.77;110.90;;;;;;;-141.97;100.00;47842.00;5054097;28;20195;-85
2023/01/22 08:33:01;;;;;;;206.70;65.43;;;;;;;-141.97;100.00;47828.53;5053930;28;20201;-85
2023/01/22 08:35:28;;;;;;;283.70;97.07;;;;;;;-141.97;100.00;47855.44;5054418;28;20169;-86
2023/01/22 08:37:53;;;;;;;253.30;82.63;;;;;;;-141.97;100.00;47951.56;5059212;28;20161;-82
2023/01/22 08:40:18;;;;;;;211.13;66.07;;;;;;;-141.97;100.00;47903.50;5067105;28;20513;-83
2023/01/22 08:42:52;;;;;;;306.97;123.00;;;;;;;-141.97;100.00;48013.06;5063041;28;20570;-86
2023/01/22 08:45:18;;;;;;;322.43;141.50;;;;;;;-141.97;100.00;47834.31;5054226;28;20172;-84
2023/01/22 08:47:43;;;;;;;315.13;130.83;;;;;;;-141.97;100.00;47922.72;5053498;28;20227;-83
2023/01/22 08:50:09;;;;;;;241.97;76.83;;;;;;;-141.97;100.00;47938.09;5056535;28;20165;-85
2023/01/22 08:52:35;;;;;;;194.10;62.47;;;;;;;-141.97;100.00;47811.25;5054474;28;20208;-85
2023/01/22 08:55:00;;;;;;;249.50;86.37;;;;;;;-141.97;100.00;47822.78;5053340;28;20253;-85
2023/01/22 08:57:26;;;;;;;187.03;61.23;;;;;;;-141.97;100.00;47807.41;5055608;28;20271;-85
2023/01/22 08:59:51;;;;;;;193.50;63.47;;;;;;;-141.97;100.00;47815.09;5055851;28;20177;-86
2023/01/22 09:02:17;;;;;;;184.87;61.93;;;;;;;-141.97;100.00;47811.25;5055518;28;20171;-86
2023/01/22 09:04:42;;;;;;;272.37;124.60;;;;;;;-141.97;100.00;47790.09;5054103;28;20535;-86
2023/01/22 09:07:09;;;;;;;159.77;59.20;;;;;;;-141.97;100.00;47818.94;5053178;28;20165;-85
2023/01/22 09:09:35;;;;;;;169.77;60.43;;;;;;;-141.97;100.00;47845.84;5052826;28;20621;-85
2023/01/22 09:12:00;;;;;;;163.67;60.10;;;;;;;-141.97;100.00;47849.69;5052681;28;20248;-85
2023/01/22 09:14:25;;;;;;;142.30;53.97;;;;;;;-141.97;100.00;47826.63;5053709;28;20236;-84
2023/01/22 09:16:51;;;;;;;130.17;49.83;;;;;;;-141.97;100.00;47911.19;5053070;28;20485;-85
2023/01/22 09:19:16;;;;;;;103.60;39.40;;;;;;;-141.97;100.00;47932.34;5052583;28;20204;-85
2023/01/22 09:21:42;;;;;;;111.40;39.57;;;;;;;-141.97;100.00;47718.97;5058928;28;20224;-85
2023/01/22 09:24:07;;;;;;;93.33;34.00;;;;;;;-141.97;100.00;47795.88;5068154;28;20181;-86
2023/01/22 09:26:33;;;;;;;72.20;30.77;;;;;;;-141.97;100.00;47838.16;5073883;28;20180;-85
2023/01/22 09:29:00;;;;;;;103.83;45.13;;;;;;;-141.97;100.00;47918.88;5069486;28;20150;-84
2023/01/22 09:31:28;;;;;;;88.47;38.93;;;;;;;-141.97;100.00;47818.94;5075078;28;20174;-84
2023/01/22 09:33:54;;;;;;;78.30;30.93;;;;;;;-141.97;100.00;47726.66;5060113;28;20216;-84
2023/01/22 09:36:20;;;;;;;83.07;36.63;;;;;;;-141.97;100.00;47880.44;5052668;28;20610;-83
2023/01/22 09:38:46;;;;;;;75.63;33.17;;;;;;;-141.97;100.00;47830.47;5053060;28;20169;-86
2023/01/22 09:41:33;;;;;;;75.50;31.23;;;;;;;-141.97;100.00;47797.78;5048346;28;20188;-85
2023/01/22 09:44:00;;;;;;;67.80;28.00;;;;;;;-141.97;100.00;47828.53;5073635;28;20185;-85
2023/01/22 09:46:44;;;;;;;77.90;31.13;;;;;;;-141.97;100.00;47799.72;5087816;28;20177;-87
2023/01/22 09:49:24;;;;;;;59.90;25.90;;;;;;;-141.97;100.00;47843.91;5063027;28;20299;-85
2023/01/22 09:51:55;;;;;;;64.50;27.90;;;;;;;-141.97;100.00;47866.97;5088390;28;20202;-89
2023/01/22 09:54:21;;;;;;;49.50;21.97;;;;;;;-141.97;100.00;47830.47;5075702;28;20247;-87
2023/01/22 09:56:50;;;;;;;48.57;22.30;;;;;;;-141.97;100.00;47845.84;5072472;28;20181;-86
2023/01/22 09:59:45;;;;;;;53.87;25.00;;;;;;;-141.97;100.00;47765.09;5058909;28;20169;-85
2023/01/22 10:02:21;;;;;;;52.13;23.07;;;;;;;-141.97;100.00;47817.00;5053842;28;20623;-87
2023/01/22 10:04:51;;;;;;;48.60;24.37;;;;;;;-141.97;100.00;47838.16;5068387;28;20169;-87
2023/01/22 10:07:31;;;;;;;53.73;23.77;;;;;;;-141.97;100.00;47732.44;5035257;28;20681;-86
2023/01/22 10:10:02;;;;;;;51.67;24.37;;;;;;;-141.97;100.00;47801.63;5032245;28;20170;-86
2023/01/22 10:12:30;;;;;;;42.03;19.43;;;;;;;-141.97;100.00;47778.56;5032308;28;20166;-86
2023/01/22 10:14:56;;;;;;;42.40;22.60;;;;;;;-141.97;100.00;47830.47;5032328;28;20275;-86
2023/01/22 10:17:29;;;;;;;37.47;19.97;;;;;;;-141.97;100.00;47865.06;5032101;28;20170;-86
2023/01/22 10:20:02;;;;;;;47.27;24.97;;;;;;;-141.97;100.00;47828.53;5031281;28;20166;-87
2023/01/22 10:22:27;;;;;;;47.63;22.73;;;;;;;-141.97;100.00;47751.66;5031693;28;20170;-86
2023/01/22 10:24:53;;;;;;;46.63;23.57;;;;;;;-141.97;100.00;47916.97;5045656;28;20177;-86
2023/01/22 10:27:32;;;;;;;43.43;22.30;;;;;;;-141.97;100.00;47868.91;5051346;28;20546;-86
2023/01/22 10:30:02;;;;;;;41.43;21.67;;;;;;;-141.97;100.00;47836.22;5052592;28;20166;-85
2023/01/22 10:32:29;;;;;;;42.13;21.23;;;;;;;-141.97;100.00;47845.84;5050737;28;20161;-85
2023/01/22 10:35:19;;;;;;;50.57;25.67;;;;;;;-141.97;100.00;47843.91;5049604;28;20170;-86
2023/01/22 10:37:50;;;;;;;44.63;22.83;;;;;;;-141.97;100.00;47822.78;5052268;28;20176;-86
2023/01/22 10:40:33;;;;;;;43.97;23.20;;;;;;;-141.97;100.00;47880.44;5053398;28;20154;-85
2023/01/22 10:43:08;;;;;;;46.10;24.67;;;;;;;-141.97;100.00;47847.75;5054099;28;20185;-85
2023/01/22 10:45:34;;;;;;;52.40;30.33;;;;;;;-141.97;100.00;47878.53;5057912;28;20188;-85
2023/01/22 10:48:12;;;;;;;83.67;47.53;;;;;;;-141.97;100.00;47855.44;5054020;28;20606;-85
2023/01/22 10:50:38;;;;;;;65.30;35.27;;;;;;;-141.97;100.00;47767.03;5055188;28;20187;-86
2023/01/22 10:53:21;;;;;;;44.20;23.30;;;;;;;-141.97;100.00;47801.63;5055566;28;20181;-84
2023/01/22 10:55:56;;;;;;;53.73;27.73;;;;;;;-141.97;100.00;47786.25;5056885;28;20165;-85
2023/01/22 10:58:25;;;;;;;45.30;26.00;;;;;;;-141.97;100.00;47799.72;5057726;28;20163;-85
2023/01/22 11:01:28;;;;;;;40.67;22.53;;;;;;;-141.97;100.00;47872.75;5056523;28;20169;-85
2023/01/22 11:03:54;;;;;;;36.20;19.70;;;;;;;-141.97;100.00;47920.81;5019051;28;20190;-86